Time;durP1;ratioP1;P1;durP2;ratioP2;P2;SDS_P1;SDS_P2;PMS_P1;PMS_P2;Temp;Humidity;BMP_temperature;BMP_pressure;BME280_temperature;BME280_humidity;BME280_pressure;Samples;Min_cycle;Max_cycle;Signal;HPM_P1;HPM_P2
2023/12/29 00:00:49;;;;;;;1.80;1.70;;;17.60;47.20;;;;;;5148022;27;45323;-66
2023/12/29 00:03:16;;;;;;;1.75;1.65;;;17.60;47.20;;;;;;5148079;27;45334;-66
2023/12/29 00:05:43;;;;;;;1.60;1.50;;;17.60;47.20;;;;;;5148394;27;45311;-67
2023/12/29 00:08:11;;;;;;;2.40;1.70;;;17.50;47.20;;;;;;5147839;27;45623;-66
2023/12/29 00:10:38;;;;;;;1.75;1.65;;;17.50;47.20;;;;;;5148034;27;45488;-66
2023/12/29 00:13:05;;;;;;;2.75;1.40;;;17.50;47.30;;;;;;5148116;27;45298;-66
2023/12/29 00:15:32;;;;;;;2.22;1.80;;;17.50;47.30;;;;;;5147957;27;45267;-66
2023/12/29 00:17:58;;;;;;;1.60;1.38;;;17.50;47.30;;;;;;5147699;27;45313;-66
2023/12/29 00:20:25;;;;;;;3.00;1.77;;;17.50;47.30;;;;;;5147621;27;45354;-66
2023/12/29 00:22:53;;;;;;;2.95;1.73;;;17.50;47.90;;;;;;5158015;27;45369;-65
2023/12/29 00:25:22;;;;;;;2.40;1.60;;;17.50;47.40;;;;;;5169034;27;45365;-66
2023/12/29 00:27:49;;;;;;;1.25;1.15;;;17.40;47.90;;;;;;5166023;27;46133;-65
2023/12/29 00:30:18;;;;;;;1.30;1.17;;;17.40;47.40;;;;;;5168669;27;45511;-66
2023/12/29 00:32:44;;;;;;;1.55;1.45;;;17.40;47.40;;;;;;5168951;27;45183;-66
2023/12/29 00:35:11;;;;;;;1.65;1.55;;;17.40;47.40;;;;;;5168851;27;45460;-65
2023/12/29 00:37:38;;;;;;;1.88;1.33;;;17.40;47.40;;;;;;5170327;27;45715;-66
2023/12/29 00:40:07;;;;;;;1.30;1.20;;;17.40;47.40;;;;;;5171524;27;45468;-66
2023/12/29 00:42:35;;;;;;;1.52;1.42;;;17.40;47.50;;;;;;5172400;27;45356;-66
2023/12/29 00:45:02;;;;;;;1.25;1.15;;;17.40;47.50;;;;;;5172581;27;45137;-66
2023/12/29 00:47:29;;;;;;;1.60;1.50;;;17.30;47.50;;;;;;5172067;27;47255;-66
2023/12/29 00:49:56;;;;;;;1.88;1.60;;;17.40;47.50;;;;;;5164688;27;45414;-65
2023/12/29 00:52:23;;;;;;;2.85;1.73;;;17.30;47.50;;;;;;5151315;27;45405;-65
2023/12/29 00:54:49;;;;;;;1.70;1.60;;;17.30;47.50;;;;;;5151429;27;45302;-66
2023/12/29 00:57:16;;;;;;;1.38;1.20;;;17.30;47.60;;;;;;5150830;27;45401;-67
2023/12/29 00:59:47;;;;;;;2.25;1.65;;;17.30;47.60;;;;;;5150990;27;45346;-66
2023/12/29 01:02:14;;;;;;;1.50;1.40;;;17.30;47.60;;;;;;5150872;27;45426;-66
2023/12/29 01:04:43;;;;;;;1.60;1.40;;;17.30;47.60;;;;;;5151255;27;45338;-66
2023/12/29 01:07:10;;;;;;;1.50;1.40;;;17.30;47.70;;;;;;5150920;27;46383;-65
2023/12/29 01:09:39;;;;;;;1.60;1.50;;;17.30;47.70;;;;;;5151020;27;45450;-66
2023/12/29 01:12:07;;;;;;;1.75;1.60;;;17.20;47.70;;;;;;5151205;27;45402;-67
2023/12/29 01:14:33;;;;;;;1.55;1.45;;;17.30;47.70;;;;;;5151045;27;45541;-66
2023/12/29 01:17:02;;;;;;;1.90;1.40;;;17.20;47.70;;;;;;5150953;27;46423;-66
2023/12/29 01:19:29;;;;;;;1.10;1.00;;;17.20;47.70;;;;;;5150849;27;45326;-66
2023/12/29 01:21:56;;;;;;;1.77;1.63;;;17.20;47.80;;;;;;5150595;27;45201;-67
2023/12/29 01:24:22;;;;;;;1.80;1.20;;;17.20;47.80;;;;;;5150983;27;45414;-66
2023/12/29 01:26:49;;;;;;;1.42;1.33;;;17.20;47.80;;;;;;5147938;27;45184;-66
2023/12/29 01:29:16;;;;;;;1.13;1.13;;;17.20;47.90;;;;;;5151038;27;45334;-66
2023/12/29 01:31:43;;;;;;;1.25;1.10;;;17.20;47.80;;;;;;5171739;27;45330;-66
2023/12/29 01:34:11;;;;;;;1.38;1.15;;;17.20;47.90;;;;;;5172003;27;45391;-66
2023/12/29 01:36:38;;;;;;;1.38;1.20;;;17.10;47.80;;;;;;5171354;27;45316;-67
2023/12/29 01:39:05;;;;;;;1.50;1.40;;;17.10;47.90;;;;;;5171290;27;45232;-66
2023/12/29 01:41:32;;;;;;;1.73;1.17;;;17.10;47.90;;;;;;5171579;27;45385;-66
2023/12/29 01:44:21;;;;;;;0.98;0.98;;;17.10;47.90;;;;;;5171604;27;45499;-66
2023/12/29 01:46:49;;;;;;;1.52;1.42;;;17.10;47.90;;;;;;5171022;27;46649;-66
2023/12/29 01:49:18;;;;;;;1.50;1.40;;;17.10;48.00;;;;;;5168895;27;45321;-66
2023/12/29 01:51:45;;;;;;;1.40;1.30;;;17.10;48.00;;;;;;5150254;27;45407;-66
2023/12/29 01:54:12;;;;;;;1.30;1.20;;;17.00;48.00;;;;;;5150207;27;45310;-66
2023/12/29 01:56:39;;;;;;;1.20;1.10;;;17.10;48.10;;;;;;5147170;27;45410;-65
2023/12/29 01:59:06;;;;;;;1.70;1.60;;;17.00;48.00;;;;;;5149995;27;45451;-65
2023/12/29 02:01:33;;;;;;;2.33;1.30;;;17.00;48.10;;;;;;5150336;27;45386;-65
2023/12/29 02:04:00;;;;;;;1.30;1.17;;;17.00;48.10;;;;;;5150485;27;45350;-66
2023/12/29 02:06:28;;;;;;;1.17;1.17;;;17.00;48.10;;;;;;5149619;27;46677;-66
2023/12/29 02:08:55;;;;;;;1.25;1.17;;;17.00;48.20;;;;;;5150064;27;45259;-66
2023/12/29 02:11:21;;;;;;;1.33;1.20;;;17.00;48.20;;;;;;5149862;27;45327;-66
2023/12/29 02:13:48;;;;;;;1.17;1.10;;;17.00;48.20;;;;;;5150118;27;45324;-66
2023/12/29 02:16:22;;;;;;;1.63;1.20;;;17.00;48.20;;;;;;5149547;27;46663;-66
2023/12/29 02:18:49;;;;;;;1.38;1.23;;;16.90;48.20;;;;;;5149724;27;45389;-65
2023/12/29 02:21:16;;;;;;;1.52;1.20;;;16.90;48.30;;;;;;5149672;27;45322;-66
2023/12/29 02:23:44;;;;;;;1.48;1.38;;;16.90;48.30;;;;;;5167423;27;45352;-66
2023/12/29 02:26:13;;;;;;;1.67;1.58;;;16.90;48.30;;;;;;5170416;27;45408;-65
2023/12/29 02:28:42;;;;;;;1.50;1.38;;;16.90;48.30;;;;;;5170791;27;45573;-66
2023/12/29 02:31:10;;;;;;;1.20;1.10;;;16.90;48.30;;;;;;5170738;27;45186;-66
2023/12/29 02:33:39;;;;;;;1.38;1.27;;;16.90;48.40;;;;;;5170782;27;45353;-67
2023/12/29 02:36:06;;;;;;;1.38;1.27;;;16.90;48.40;;;;;;5170519;27;46599;-66
2023/12/29 02:38:33;;;;;;;1.23;1.13;;;16.90;48.50;;;;;;5170352;27;45374;-66
2023/12/29 02:41:00;;;;;;;1.33;1.25;;;16.90;48.50;;;;;;5169690;27;45287;-65
2023/12/29 02:43:28;;;;;;;1.35;1.25;;;16.90;48.50;;;;;;5170637;27;45480;-65
2023/12/29 02:45:55;;;;;;;1.20;1.15;;;16.90;48.50;;;;;;5170289;27;45480;-66
2023/12/29 02:48:22;;;;;;;1.35;1.25;;;16.90;49.20;;;;;;5170223;27;45251;-66
2023/12/29 02:50:49;;;;;;;1.65;1.30;;;16.80;48.60;;;;;;5155084;27;45203;-66
2023/12/29 02:53:16;;;;;;;1.30;1.20;;;16.80;48.60;;;;;;5149463;27;45302;-66
2023/12/29 02:55:42;;;;;;;1.50;1.40;;;16.80;48.60;;;;;;5149037;27;46697;-66
2023/12/29 02:58:10;;;;;;;1.52;1.38;;;16.80;48.60;;;;;;5149099;27;45509;-67
2023/12/29 03:00:38;;;;;;;1.40;1.30;;;16.80;48.60;;;;;;5148047;27;45295;-66
2023/12/29 03:03:05;;;;;;;1.48;1.33;;;16.80;48.60;;;;;;5149339;27;45244;-67
2023/12/29 03:05:32;;;;;;;1.08;1.08;;;16.80;48.60;;;;;;5148760;27;45376;-66
2023/12/29 03:07:58;;;;;;;1.08;1.00;;;16.80;48.60;;;;;;5149153;27;45323;-66
2023/12/29 03:10:25;;;;;;;2.05;1.55;;;16.80;48.70;;;;;;5149056;27;45292;-66
2023/12/29 03:12:52;;;;;;;1.40;1.30;;;16.80;48.70;;;;;;5149238;27;45118;-66
2023/12/29 03:15:19;;;;;;;1.15;1.15;;;16.80;48.70;;;;;;5148638;27;46668;-66
2023/12/29 03:17:47;;;;;;;1.17;1.08;;;16.80;48.70;;;;;;5148759;27;45252;-66
2023/12/29 03:20:14;;;;;;;1.38;1.30;;;16.80;48.70;;;;;;5148728;27;45342;-66
2023/12/29 03:22:41;;;;;;;1.25;1.15;;;16.70;48.70;;;;;;5156717;27;45566;-65
2023/12/29 03:25:08;;;;;;;1.42;1.33;;;16.70;48.70;;;;;;5169632;27;45309;-65
2023/12/29 03:27:35;;;;;;;1.55;1.45;;;16.70;48.80;;;;;;5169472;27;45339;-65
2023/12/29 03:30:02;;;;;;;1.40;1.25;;;16.70;48.80;;;;;;5169818;27;45387;-66
2023/12/29 03:32:28;;;;;;;1.33;1.25;;;16.70;48.80;;;;;;5169952;27;45297;-66
2023/12/29 03:34:57;;;;;;;1.40;1.10;;;16.70;48.80;;;;;;5169596;27;47277;-66
2023/12/29 03:37:24;;;;;;;2.25;1.52;;;16.70;48.70;;;;;;5169569;27;45321;-66
2023/12/29 03:39:50;;;;;;;1.40;1.20;;;16.70;49.30;;;;;;5169361;27;45673;-66
2023/12/29 03:42:17;;;;;;;1.48;1.38;;;16.70;48.80;;;;;;5169922;27;45482;-67
2023/12/29 03:44:44;;;;;;;1.67;1.40;;;16.70;48.80;;;;;;5169377;27;45280;-65
2023/12/29 03:47:11;;;;;;;1.10;1.00;;;16.70;48.80;;;;;;5169452;27;45249;-66
2023/12/29 03:49:38;;;;;;;1.30;1.13;;;16.70;48.80;;;;;;5164781;27;45417;-66
2023/12/29 03:52:06;;;;;;;2.28;1.13;;;16.70;48.80;;;;;;5148822;27;45341;-66
2023/12/29 03:54:33;;;;;;;1.10;1.10;;;16.60;48.80;;;;;;5148501;27;47309;-65
2023/12/29 03:57:00;;;;;;;1.10;1.10;;;16.70;48.90;;;;;;5148284;27;45423;-67
2023/12/29 03:59:27;;;;;;;1.17;1.15;;;16.70;48.90;;;;;;5148438;27;45257;-66
2023/12/29 04:01:54;;;;;;;1.30;1.20;;;16.60;48.80;;;;;;5148745;27;45570;-65
2023/12/29 04:04:21;;;;;;;1.13;1.10;;;16.60;48.90;;;;;;5147807;27;45378;-66
2023/12/29 04:06:48;;;;;;;1.40;1.30;;;16.60;48.80;;;;;;5147938;27;45458;-65
2023/12/29 04:09:16;;;;;;;1.27;1.17;;;16.60;48.90;;;;;;5148618;27;45306;-65
2023/12/29 04:11:43;;;;;;;1.20;1.10;;;16.60;49.50;;;;;;5148446;27;45294;-65
2023/12/29 04:14:12;;;;;;;1.20;1.10;;;16.60;48.90;;;;;;5148282;27;45449;-66
2023/12/29 04:16:39;;;;;;;1.30;1.20;;;16.60;48.90;;;;;;5148017;27;45342;-65
2023/12/29 04:19:06;;;;;;;1.67;1.40;;;16.60;49.00;;;;;;5148283;27;45310;-66
2023/12/29 04:21:33;;;;;;;1.70;1.33;;;16.50;49.00;;;;;;5148239;27;45414;-65
2023/12/29 04:24:00;;;;;;;1.58;1.20;;;16.50;48.90;;;;;;5167762;27;46391;-66
2023/12/29 04:26:28;;;;;;;2.00;1.20;;;16.60;49.10;;;;;;5168989;27;45681;-66
2023/12/29 04:28:55;;;;;;;1.30;1.20;;;16.60;49.00;;;;;;5169207;27;45427;-65
2023/12/29 04:31:22;;;;;;;1.52;1.42;;;16.50;49.00;;;;;;5169414;27;45253;-66
2023/12/29 04:33:48;;;;;;;1.52;1.30;;;16.50;49.10;;;;;;5168828;27;46555;-66
2023/12/29 04:36:15;;;;;;;1.70;1.20;;;16.50;49.10;;;;;;5168735;27;45346;-66
2023/12/29 04:38:42;;;;;;;1.33;1.23;;;16.50;49.10;;;;;;5169162;27;45390;-67
2023/12/29 04:41:09;;;;;;;1.30;1.20;;;16.50;49.10;;;;;;5168793;27;45383;-67
2023/12/29 04:43:37;;;;;;;1.40;1.30;;;16.50;49.10;;;;;;5168758;27;46386;-65
2023/12/29 04:46:04;;;;;;;1.10;1.05;;;16.50;49.10;;;;;;5168804;27;45244;-66
2023/12/29 04:48:31;;;;;;;1.25;1.17;;;16.50;49.10;;;;;;5168367;27;45343;-65
2023/12/29 04:50:58;;;;;;;0.93;0.90;;;16.50;49.10;;;;;;5152457;27;45304;-66
2023/12/29 04:53:24;;;;;;;1.30;1.20;;;16.50;49.10;;;;;;5147627;27;46709;-65
2023/12/29 04:55:51;;;;;;;2.55;1.10;;;16.40;49.20;;;;;;5147579;27;45305;-67
2023/12/29 04:58:18;;;;;;;1.83;1.33;;;16.40;49.10;;;;;;5147852;27;45367;-66
2023/12/29 05:00:46;;;;;;;1.27;1.17;;;16.50;49.20;;;;;;5148230;27;45410;-66
2023/12/29 05:03:13;;;;;;;1.25;1.15;;;16.40;49.10;;;;;;5147628;27;45546;-65
2023/12/29 05:05:40;;;;;;;1.10;0.93;;;16.40;49.10;;;;;;5147648;27;45291;-66
2023/12/29 05:08:07;;;;;;;1.40;1.30;;;16.40;49.20;;;;;;5147769;27;45298;-65
2023/12/29 05:10:36;;;;;;;1.27;1.10;;;16.40;49.20;;;;;;5147770;27;45298;-65
2023/12/29 05:13:03;;;;;;;1.40;1.10;;;16.40;49.20;;;;;;5147649;27;45327;-65
2023/12/29 05:15:30;;;;;;;1.20;1.10;;;16.40;49.10;;;;;;5147395;27;45320;-66
2023/12/29 05:17:58;;;;;;;1.15;1.00;;;16.40;49.10;;;;;;5147483;27;45236;-66
2023/12/29 05:20:25;;;;;;;1.13;1.10;;;16.40;49.20;;;;;;5147630;27;45321;-66
2023/12/29 05:22:52;;;;;;;1.08;1.00;;;16.40;49.20;;;;;;5157612;27;45378;-65
2023/12/29 05:25:19;;;;;;;1.83;1.10;;;16.40;49.20;;;;;;5172070;27;45381;-65
2023/12/29 05:27:46;;;;;;;0.90;0.90;;;16.40;49.20;;;;;;5172049;27;45523;-66
2023/12/29 05:30:14;;;;;;;1.10;1.10;;;16.40;49.20;;;;;;5172367;27;45386;-66
2023/12/29 05:32:41;;;;;;;0.80;0.80;;;16.30;49.20;;;;;;5171207;27;45342;-66
2023/12/29 05:35:09;;;;;;;0.93;0.93;;;16.40;49.30;;;;;;5171647;27;45409;-65
2023/12/29 05:37:36;;;;;;;1.05;1.00;;;16.30;49.20;;;;;;5171955;27;45436;-66
2023/12/29 05:40:03;;;;;;;1.38;1.15;;;16.30;49.20;;;;;;5171747;27;45463;-66
2023/12/29 05:42:30;;;;;;;2.00;1.10;;;16.30;49.30;;;;;;5171600;27;46600;-65
2023/12/29 05:44:57;;;;;;;1.05;0.90;;;16.30;49.30;;;;;;5171501;27;45401;-65
2023/12/29 05:47:24;;;;;;;1.23;1.17;;;16.30;49.90;;;;;;5171596;27;45331;-65
2023/12/29 05:49:51;;;;;;;1.05;1.02;;;16.30;49.30;;;;;;5164778;27;45273;-65
2023/12/29 05:52:19;;;;;;;1.20;1.10;;;16.30;49.40;;;;;;5150324;27;45528;-65
2023/12/29 05:54:46;;;;;;;1.23;1.13;;;16.30;49.40;;;;;;5150496;27;45248;-65
2023/12/29 05:57:13;;;;;;;1.20;1.10;;;16.30;49.40;;;;;;5150456;27;45429;-66
2023/12/29 05:59:40;;;;;;;1.10;1.00;;;16.30;49.40;;;;;;5147810;27;45345;-67
2023/12/29 06:02:07;;;;;;;1.10;1.00;;;16.30;49.30;;;;;;5150244;27;46636;-65
2023/12/29 06:04:34;;;;;;;0.90;0.90;;;16.30;49.30;;;;;;5150213;27;45267;-65
2023/12/29 06:07:01;;;;;;;0.98;0.98;;;16.30;49.40;;;;;;5150386;27;45186;-65
2023/12/29 06:09:29;;;;;;;1.00;1.00;;;16.30;50.10;;;;;;5150401;27;45352;-66
2023/12/29 06:11:56;;;;;;;1.02;0.88;;;16.30;49.40;;;;;;5150041;27;45381;-65
2023/12/29 06:14:23;;;;;;;1.40;1.30;;;16.40;49.40;;;;;;5149587;27;45317;-65
2023/12/29 06:16:50;;;;;;;1.30;1.20;;;16.40;49.20;;;;;;5150148;27;45171;-65
2023/12/29 06:19:16;;;;;;;1.10;1.02;;;16.50;49.10;;;;;;5150056;27;45430;-64
2023/12/29 06:21:43;;;;;;;1.25;1.20;;;16.60;48.90;;;;;;5149761;27;46649;-65
2023/12/29 06:24:11;;;;;;;1.00;1.00;;;16.60;48.70;;;;;;5129241;27;45323;-65
2023/12/29 06:26:41;;;;;;;1.20;1.10;;;16.80;48.60;;;;;;5129221;27;45303;-65
2023/12/29 06:29:08;;;;;;;1.40;1.30;;;16.90;48.40;;;;;;5129247;27;45507;-65
2023/12/29 06:31:35;;;;;;;0.90;0.90;;;17.00;48.10;;;;;;5128891;27;45296;-65
2023/12/29 06:34:02;;;;;;;0.95;0.95;;;17.10;47.90;;;;;;5128109;27;45227;-65
2023/12/29 06:36:29;;;;;;;0.90;0.90;;;17.20;48.30;;;;;;5128479;27;45134;-65
2023/12/29 06:38:56;;;;;;;0.85;0.85;;;17.30;47.50;;;;;;5129181;27;45268;-65
2023/12/29 06:41:22;;;;;;;1.05;0.90;;;17.40;47.30;;;;;;5148747;27;48294;-65
2023/12/29 06:43:51;;;;;;;1.00;1.00;;;17.50;47.20;;;;;;5149539;27;45317;-66
2023/12/29 06:46:17;;;;;;;1.00;0.90;;;17.50;47.10;;;;;;5149602;27;45289;-65
2023/12/29 06:48:44;;;;;;;2.00;0.93;;;17.60;46.90;;;;;;5149959;27;45382;-65
2023/12/29 06:51:17;;;;;;;0.90;0.90;;;17.70;46.90;;;;;;5167884;27;46666;-66
2023/12/29 06:53:44;;;;;;;1.00;0.95;;;17.70;47.30;;;;;;5170483;27;45192;-66
2023/12/29 06:56:14;;;;;;;0.88;0.88;;;17.80;46.70;;;;;;5170484;27;45204;-65
2023/12/29 06:58:41;;;;;;;1.05;1.00;;;17.80;46.60;;;;;;5170938;27;45380;-65
2023/12/29 07:01:09;;;;;;;1.67;1.10;;;17.90;46.50;;;;;;5169654;27;45269;-65
2023/12/29 07:03:36;;;;;;;1.23;1.00;;;17.90;46.40;;;;;;5170112;27;45373;-66
2023/12/29 07:06:03;;;;;;;0.80;0.77;;;18.00;46.40;;;;;;5170187;27;45348;-66
2023/12/29 07:08:30;;;;;;;1.08;0.98;;;18.00;46.40;;;;;;5170429;27;45391;-65
2023/12/29 07:10:57;;;;;;;0.90;0.80;;;18.00;46.40;;;;;;5170111;27;46677;-67
2023/12/29 07:13:23;;;;;;;1.20;1.10;;;18.00;46.30;;;;;;5170202;27;45267;-65
2023/12/29 07:15:50;;;;;;;0.75;0.70;;;18.10;46.30;;;;;;5170219;27;45325;-65
2023/12/29 07:18:18;;;;;;;0.98;0.93;;;18.10;46.20;;;;;;5170425;27;45312;-66
2023/12/29 07:20:45;;;;;;;1.05;0.95;;;18.20;46.20;;;;;;5169833;27;45614;-66
2023/12/29 07:23:12;;;;;;;1.10;1.00;;;18.20;46.20;;;;;;5156903;27;45385;-65
2023/12/29 07:25:39;;;;;;;1.08;0.93;;;18.20;46.10;;;;;;5149117;27;45314;-66
2023/12/29 07:28:06;;;;;;;0.63;0.63;;;18.30;46.10;;;;;;5149435;27;45390;-66
2023/12/29 07:30:33;;;;;;;1.67;0.80;;;18.20;46.00;;;;;;5148905;27;46313;-66
2023/12/29 07:33:02;;;;;;;1.17;0.73;;;18.30;46.00;;;;;;5148898;27;45368;-65
2023/12/29 07:35:30;;;;;;;1.45;0.90;;;18.30;46.00;;;;;;5148597;27;45299;-66
2023/12/29 07:37:57;;;;;;;0.63;0.63;;;18.30;46.00;;;;;;5149107;27;45409;-66
2023/12/29 07:40:24;;;;;;;1.52;1.00;;;18.40;46.00;;;;;;5148173;27;45485;-66
2023/12/29 07:42:51;;;;;;;1.67;0.90;;;18.40;46.00;;;;;;5148175;27;45417;-66
2023/12/29 07:45:18;;;;;;;0.75;0.75;;;18.40;45.90;;;;;;5148699;27;45350;-65
2023/12/29 07:47:45;;;;;;;0.95;0.90;;;18.40;45.90;;;;;;5148934;27;45186;-65
2023/12/29 07:50:12;;;;;;;2.45;0.70;;;18.40;45.90;;;;;;5158395;27;45328;-66
2023/12/29 07:52:40;;;;;;;1.08;1.00;;;18.40;45.90;;;;;;5169599;27;45407;-65
2023/12/29 07:55:07;;;;;;;1.02;0.80;;;18.40;45.90;;;;;;5167018;27;45309;-67
2023/12/29 07:57:34;;;;;;;1.23;0.70;;;18.50;45.90;;;;;;5169643;27;45203;-66
2023/12/29 08:00:02;;;;;;;6.35;0.90;;;18.50;45.80;;;;;;5168868;27;45364;-64
2023/12/29 08:02:29;;;;;;;0.70;0.70;;;18.60;46.40;;;;;;5169077;27;45380;-62
2023/12/29 08:04:56;;;;;;;1.00;0.90;;;18.60;46.10;;;;;;5169337;27;45360;-67
2023/12/29 08:07:23;;;;;;;0.90;0.90;;;18.70;45.90;;;;;;5169253;27;45475;-66
2023/12/29 08:09:51;;;;;;;7.88;1.00;;;18.80;45.60;;;;;;5169079;27;46351;-66
2023/12/29 08:12:18;;;;;;;0.82;0.82;;;18.90;45.60;;;;;;5169093;27;45562;-64
2023/12/29 08:14:44;;;;;;;0.80;0.80;;;19.00;45.90;;;;;;5169295;27;45398;-66
2023/12/29 08:17:12;;;;;;;0.80;0.80;;;19.00;45.20;;;;;;5168949;27;45411;-63
2023/12/29 08:19:39;;;;;;;1.85;1.10;;;19.00;45.10;;;;;;5168657;27;46572;-64
2023/12/29 08:22:07;;;;;;;1.20;1.10;;;19.10;45.10;;;;;;5165397;27;45321;-63
2023/12/29 08:24:34;;;;;;;1.40;1.30;;;19.10;45.10;;;;;;5147939;27;45348;-66
2023/12/29 08:27:03;;;;;;;2.22;2.03;;;19.10;45.20;;;;;;5147568;27;45461;-66
2023/12/29 08:29:30;;;;;;;2.83;2.17;;;19.10;45.10;;;;;;5147745;27;45268;-65
2023/12/29 08:31:56;;;;;;;4.40;1.65;;;19.30;45.20;;;;;;5147765;27;45206;-65
2023/12/29 08:34:23;;;;;;;3.50;1.60;;;19.30;44.90;;;;;;5148079;27;45375;-66
2023/12/29 08:36:50;;;;;;;2.95;2.20;;;19.30;45.40;;;;;;5148039;27;45375;-65
2023/12/29 08:39:18;;;;;;;3.35;1.63;;;19.40;44.80;;;;;;5145417;27;45397;-65
2023/12/29 08:41:45;;;;;;;1.45;1.35;;;19.40;44.70;;;;;;5126809;27;46308;-66
2023/12/29 08:44:14;;;;;;;1.30;1.20;;;19.50;44.80;;;;;;5126617;27;45337;-65
2023/12/29 08:46:41;;;;;;;4.18;1.77;;;19.40;44.60;;;;;;5126763;27;45497;-65
2023/12/29 08:49:08;;;;;;;1.48;1.38;;;19.40;44.80;;;;;;5126567;27;45427;-64
2023/12/29 08:51:35;;;;;;;1.52;1.42;;;19.30;44.90;;;;;;5126877;27;45202;-65
2023/12/29 08:54:01;;;;;;;3.70;1.48;;;19.20;45.00;;;;;;5126785;27;45126;-66
2023/12/29 08:56:29;;;;;;;1.85;1.50;;;19.20;45.10;;;;;;5126898;27;45306;-64
2023/12/29 08:58:55;;;;;;;1.30;1.30;;;19.20;45.20;;;;;;5128696;27;45475;-65
2023/12/29 09:01:24;;;;;;;1.45;1.35;;;19.10;45.20;;;;;;5130605;27;45418;-65
2023/12/29 09:03:50;;;;;;;1.40;1.30;;;19.10;45.30;;;;;;5130250;27;45280;-64
2023/12/29 09:06:17;;;;;;;2.28;1.30;;;19.10;45.30;;;;;;5130325;27;45245;-65
2023/12/29 09:08:44;;;;;;;1.50;1.40;;;19.10;45.30;;;;;;5130203;27;46321;-65
2023/12/29 09:11:11;;;;;;;5.10;1.38;;;19.10;45.40;;;;;;5129790;27;45413;-64
2023/12/29 09:13:38;;;;;;;2.67;1.40;;;19.10;45.40;;;;;;5130230;27;45366;-64
2023/12/29 09:16:06;;;;;;;2.15;1.40;;;19.10;45.50;;;;;;5130200;27;45306;-65
2023/12/29 09:18:34;;;;;;;3.95;1.52;;;19.10;45.50;;;;;;5129914;27;47189;-65
2023/12/29 09:21:01;;;;;;;1.33;1.23;;;19.10;45.50;;;;;;5129743;27;45414;-64
2023/12/29 09:23:28;;;;;;;3.17;1.45;;;19.10;45.50;;;;;;5144611;27;45396;-64
2023/12/29 09:25:54;;;;;;;1.55;1.20;;;19.10;45.50;;;;;;5150855;27;45269;-65
2023/12/29 09:28:21;;;;;;;2.55;1.20;;;19.10;45.50;;;;;;5150452;27;46430;-65
2023/12/29 09:30:48;;;;;;;1.27;1.17;;;19.10;45.50;;;;;;5150550;27;45264;-65
2023/12/29 09:33:15;;;;;;;1.50;1.40;;;19.10;45.50;;;;;;5150901;27;45329;-64
2023/12/29 09:35:43;;;;;;;4.40;1.25;;;19.10;45.50;;;;;;5150664;27;45449;-65
2023/12/29 09:38:10;;;;;;;2.67;1.45;;;19.10;45.40;;;;;;5150276;27;47575;-64
2023/12/29 09:40:37;;;;;;;0.90;0.90;;;19.10;45.50;;;;;;5150269;27;45419;-64
2023/12/29 09:43:04;;;;;;;0.98;0.98;;;19.10;45.50;;;;;;5150637;27;45345;-64
2023/12/29 09:45:31;;;;;;;3.22;1.40;;;19.10;45.50;;;;;;5150609;27;45426;-64
2023/12/29 09:47:58;;;;;;;1.65;1.55;;;19.20;45.50;;;;;;5150384;27;46409;-65
2023/12/29 09:50:25;;;;;;;1.38;1.27;;;19.20;45.50;;;;;;5150104;27;45270;-65
2023/12/29 09:52:53;;;;;;;1.23;1.13;;;19.20;45.50;;;;;;5150381;27;45150;-64
2023/12/29 09:55:20;;;;;;;2.80;1.50;;;19.20;45.50;;;;;;5150484;27;45414;-64
2023/12/29 09:57:47;;;;;;;1.23;1.10;;;19.20;45.40;;;;;;5150512;27;46622;-64
2023/12/29 10:00:15;;;;;;;4.50;1.60;;;19.20;45.40;;;;;;5150049;27;45492;-64
2023/12/29 10:02:42;;;;;;;1.30;1.15;;;19.20;45.50;;;;;;5147564;27;45256;-66
2023/12/29 10:05:09;;;;;;;1.40;1.30;;;19.20;45.40;;;;;;5150612;27;45268;-65
2023/12/29 10:07:37;;;;;;;1.98;1.25;;;19.30;45.50;;;;;;5149923;27;45339;-66
2023/12/29 10:10:07;;;;;;;1.48;1.20;;;19.30;45.50;;;;;;5149778;27;45416;-65
2023/12/29 10:12:34;;;;;;;2.33;1.30;;;19.30;45.40;;;;;;5150204;27;45278;-64
2023/12/29 10:15:07;;;;;;;0.90;0.90;;;19.30;45.40;;;;;;5150222;27;45381;-65
2023/12/29 10:17:39;;;;;;;2.25;1.02;;;19.30;45.40;;;;;;5149976;27;45346;-65
2023/12/29 10:20:10;;;;;;;1.70;0.90;;;19.30;45.40;;;;;;5149909;27;45242;-64
2023/12/29 10:22:41;;;;;;;4.32;1.25;;;19.30;45.40;;;;;;5149699;27;45396;-65
2023/12/29 10:25:09;;;;;;;0.98;0.98;;;19.30;45.40;;;;;;5150039;27;45232;-65
2023/12/29 10:27:36;;;;;;;3.30;0.95;;;19.40;45.50;;;;;;5149656;27;45473;-64
2023/12/29 10:30:03;;;;;;;1.20;1.10;;;19.40;45.50;;;;;;5149647;27;45419;-65
2023/12/29 10:32:30;;;;;;;2.45;1.13;;;19.40;45.50;;;;;;5150067;27;45225;-66
2023/12/29 10:35:09;;;;;;;1.42;1.13;;;19.40;46.00;;;;;;5147217;27;45208;-65
2023/12/29 10:37:36;;;;;;;4.07;1.20;;;19.40;45.50;;;;;;5149389;27;45751;-65
2023/12/29 10:40:03;;;;;;;1.00;1.00;;;19.40;45.50;;;;;;5149192;27;45380;-65
2023/12/29 10:42:32;;;;;;;1.75;1.00;;;19.40;45.50;;;;;;5149579;27;45350;-66
2023/12/29 10:45:09;;;;;;;0.90;0.90;;;19.40;45.50;;;;;;5149593;27;45218;-66
2023/12/29 10:47:38;;;;;;;1.35;1.08;;;19.40;45.50;;;;;;5149280;27;45419;-65
2023/12/29 10:50:05;;;;;;;1.85;0.95;;;19.40;45.50;;;;;;5157944;27;45424;-65
2023/12/29 10:52:33;;;;;;;1.05;0.98;;;19.50;46.00;;;;;;5170398;27;45297;-65
2023/12/29 10:55:06;;;;;;;1.05;0.90;;;19.50;45.40;;;;;;5170519;27;45334;-65
2023/12/29 10:57:34;;;;;;;1.17;1.10;;;19.50;45.30;;;;;;5170081;27;45255;-65
2023/12/29 11:00:01;;;;;;;2.00;0.90;;;19.50;45.30;;;;;;5170188;27;45436;-65
2023/12/29 11:02:28;;;;;;;2.63;1.10;;;19.50;45.30;;;;;;5170298;27;45372;-65
2023/12/29 11:05:03;;;;;;;1.13;0.98;;;19.50;45.30;;;;;;5170053;27;45434;-65
2023/12/29 11:07:37;;;;;;;1.83;1.15;;;19.50;45.30;;;;;;5169749;27;46338;-65
2023/12/29 11:10:04;;;;;;;1.20;1.10;;;19.50;45.40;;;;;;5170355;27;45406;-65
2023/12/29 11:12:34;;;;;;;1.20;0.98;;;19.50;45.50;;;;;;5170440;27;45369;-66
2023/12/29 11:15:02;;;;;;;1.02;0.93;;;19.50;45.50;;;;;;5170348;27;45470;-65
2023/12/29 11:17:32;;;;;;;1.67;1.05;;;19.50;45.50;;;;;;5169967;27;46326;-65
2023/12/29 11:20:02;;;;;;;1.42;0.90;;;19.50;45.50;;;;;;5169795;27;45120;-64
2023/12/29 11:22:31;;;;;;;0.80;0.80;;;19.60;45.50;;;;;;5162726;27;45387;-66
2023/12/29 11:24:59;;;;;;;1.75;1.10;;;19.60;45.30;;;;;;5149037;27;45245;-65
2023/12/29 11:27:28;;;;;;;1.55;1.13;;;19.70;45.20;;;;;;5148585;27;46370;-65
2023/12/29 11:29:57;;;;;;;3.58;1.00;;;19.70;45.20;;;;;;5148730;27;45346;-65
2023/12/29 11:32:26;;;;;;;1.35;0.93;;;19.70;45.20;;;;;;5148752;27;45344;-65
2023/12/29 11:34:56;;;;;;;2.55;1.13;;;19.60;45.20;;;;;;5148888;27;45417;-65
2023/12/29 11:37:27;;;;;;;2.17;1.13;;;19.80;45.30;;;;;;5148062;27;46487;-66
2023/12/29 11:39:56;;;;;;;1.75;1.20;;;19.80;45.00;;;;;;5146454;27;45426;-65
2023/12/29 11:42:32;;;;;;;1.35;1.05;;;19.90;44.90;;;;;;5146052;27;45265;-65
2023/12/29 11:45:02;;;;;;;1.23;1.00;;;19.90;44.90;;;;;;5148631;27;45390;-66
2023/12/29 11:47:36;;;;;;;1.15;1.05;;;20.00;44.80;;;;;;5148458;27;45446;-65
2023/12/29 11:50:03;;;;;;;0.95;0.90;;;20.10;44.70;;;;;;5157231;27;45488;-66
2023/12/29 11:52:36;;;;;;;1.35;0.90;;;20.10;44.60;;;;;;5169663;27;45399;-65
2023/12/29 11:55:09;;;;;;;1.33;0.70;;;20.00;44.60;;;;;;5169891;27;45558;-64
2023/12/29 11:57:38;;;;;;;1.23;1.08;;;20.00;44.60;;;;;;5169192;27;46635;-65
2023/12/29 12:00:07;;;;;;;1.83;0.80;;;20.10;44.70;;;;;;5169210;27;45498;-65
2023/12/29 12:02:35;;;;;;;2.50;0.90;;;20.10;44.60;;;;;;5169239;27;45285;-63
2023/12/29 12:05:02;;;;;;;3.92;1.13;;;20.10;44.70;;;;;;5169346;27;45555;-65
2023/12/29 12:08:01;;;;;;;1.88;0.70;;;20.20;44.60;;;;;;5168629;27;45588;-65
2023/12/29 12:10:38;;;;;;;2.20;0.88;;;20.20;44.50;;;;;;5169221;27;45287;-65
2023/12/29 12:13:05;;;;;;;1.02;0.85;;;20.10;44.60;;;;;;5169426;27;45199;-65
2023/12/29 12:15:33;;;;;;;1.42;0.90;;;20.10;44.60;;;;;;5169137;27;45410;-66
2023/12/29 12:18:00;;;;;;;1.85;1.20;;;20.10;44.70;;;;;;5168829;27;45421;-66
2023/12/29 12:20:28;;;;;;;1.98;0.73;;;20.20;44.70;;;;;;5168778;27;45250;-64
2023/12/29 12:22:59;;;;;;;1.17;0.88;;;20.20;44.70;;;;;;5158695;27;45245;-65
2023/12/29 12:25:27;;;;;;;1.80;0.90;;;20.20;44.60;;;;;;5148081;27;45193;-65
2023/12/29 12:27:54;;;;;;;1.40;0.88;;;20.20;44.60;;;;;;5147687;27;46402;-65
2023/12/29 12:30:21;;;;;;;1.67;0.95;;;20.30;44.60;;;;;;5147828;27;45392;-65
2023/12/29 12:32:57;;;;;;;4.13;0.80;;;20.20;44.60;;;;;;5150013;27;45333;-65
2023/12/29 12:35:26;;;;;;;2.13;1.00;;;20.20;44.60;;;;;;5151797;27;45453;-65
2023/12/29 12:38:07;;;;;;;2.05;0.80;;;20.20;44.70;;;;;;5151217;27;45738;-66
2023/12/29 12:40:34;;;;;;;4.57;1.00;;;20.20;44.70;;;;;;5136793;27;45412;-65
2023/12/29 12:43:01;;;;;;;0.90;0.90;;;20.20;44.80;;;;;;5130534;27;45377;-65
2023/12/29 12:45:28;;;;;;;1.13;0.80;;;20.20;44.80;;;;;;5130323;27;45392;-66
2023/12/29 12:48:01;;;;;;;1.30;0.95;;;20.10;44.80;;;;;;5130414;27;45327;-65
2023/12/29 12:50:27;;;;;;;1.65;1.00;;;20.10;44.90;;;;;;5130652;27;45335;-65